sensor_id;sensor_type;location;lat;lon;timestamp;P1;durP1;ratioP1;P2;durP2;ratioP2
18793;SDS011;29610;49.022;12.114;2022-12-07T00:00:05;12.63;;;6.77;;
18793;SDS011;29610;49.022;12.114;2022-12-07T00:02:35;14.97;;;7.10;;
18793;SDS011;29610;49.022;12.114;2022-12-07T00:05:04;13.53;;;6.20;;
18793;SDS011;29610;49.022;12.114;2022-12-07T00:07:34;15.13;;;6.07;;
18793;SDS011;29610;49.022;12.114;2022-12-07T00:10:03;12.80;;;6.77;;
18793;SDS011;29610;49.022;12.114;2022-12-07T00:12:34;14.50;;;6.33;;
18793;SDS011;29610;49.022;12.114;2022-12-07T00:15:02;11.80;;;5.90;;
18793;SDS011;29610;49.022;12.114;2022-12-07T00:17:32;11.53;;;6.40;;
18793;SDS011;29610;49.022;12.114;2022-12-07T00:20:01;13.10;;;6.90;;
18793;SDS011;29610;49.022;12.114;2022-12-07T00:22:30;11.03;;;6.00;;
18793;SDS011;29610;49.022;12.114;2022-12-07T00:25:00;12.07;;;6.03;;
18793;SDS011;29610;49.022;12.114;2022-12-07T00:27:29;12.83;;;6.63;;
18793;SDS011;29610;49.022;12.114;2022-12-07T00:29:58;12.63;;;5.57;;
18793;SDS011;29610;49.022;12.114;2022-12-07T00:32:27;12.63;;;6.53;;
18793;SDS011;29610;49.022;12.114;2022-12-07T00:34:55;11.77;;;6.13;;
18793;SDS011;29610;49.022;12.114;2022-12-07T00:37:24;12.13;;;5.63;;
18793;SDS011;29610;49.022;12.114;2022-12-07T00:39:52;12.77;;;6.40;;
18793;SDS011;29610;49.022;12.114;2022-12-07T00:42:22;13.70;;;5.83;;
18793;SDS011;29610;49.022;12.114;2022-12-07T00:44:51;11.83;;;6.00;;
18793;SDS011;29610;49.022;12.114;2022-12-07T00:47:19;11.50;;;5.40;;
18793;SDS011;29610;49.022;12.114;2022-12-07T00:49:48;11.37;;;5.93;;
18793;SDS011;29610;49.022;12.114;2022-12-07T00:52:16;13.60;;;7.10;;
18793;SDS011;29610;49.022;12.114;2022-12-07T00:54:45;12.47;;;5.77;;
18793;SDS011;29610;49.022;12.114;2022-12-07T00:57:14;12.27;;;6.70;;
18793;SDS011;29610;49.022;12.114;2022-12-07T00:59:44;10.87;;;5.40;;
18793;SDS011;29610;49.022;12.114;2022-12-07T01:02:12;11.70;;;6.03;;
18793;SDS011;29610;49.022;12.114;2022-12-07T01:04:41;12.10;;;6.50;;
18793;SDS011;29610;49.022;12.114;2022-12-07T01:07:09;14.37;;;6.70;;
18793;SDS011;29610;49.022;12.114;2022-12-07T01:09:38;12.77;;;6.50;;
18793;SDS011;29610;49.022;12.114;2022-12-07T01:12:06;11.53;;;5.50;;
18793;SDS011;29610;49.022;12.114;2022-12-07T01:14:35;13.33;;;6.50;;
18793;SDS011;29610;49.022;12.114;2022-12-07T01:17:05;13.20;;;7.07;;
18793;SDS011;29610;49.022;12.114;2022-12-07T01:19:33;12.67;;;6.60;;
18793;SDS011;29610;49.022;12.114;2022-12-07T01:22:02;14.43;;;7.63;;
18793;SDS011;29610;49.022;12.114;2022-12-07T01:24:30;13.40;;;6.63;;
18793;SDS011;29610;49.022;12.114;2022-12-07T01:26:59;15.83;;;8.40;;
18793;SDS011;29610;49.022;12.114;2022-12-07T01:29:27;13.73;;;7.70;;
18793;SDS011;29610;49.022;12.114;2022-12-07T01:31:56;15.80;;;7.50;;
18793;SDS011;29610;49.022;12.114;2022-12-07T01:34:26;16.00;;;8.40;;
18793;SDS011;29610;49.022;12.114;2022-12-07T01:36:56;13.37;;;7.53;;
18793;SDS011;29610;49.022;12.114;2022-12-07T01:39:25;13.03;;;6.87;;
18793;SDS011;29610;49.022;12.114;2022-12-07T01:41:54;15.03;;;8.13;;
18793;SDS011;29610;49.022;12.114;2022-12-07T01:44:23;16.10;;;7.40;;
18793;SDS011;29610;49.022;12.114;2022-12-07T01:46:53;12.97;;;6.37;;
18793;SDS011;29610;49.022;12.114;2022-12-07T01:49:29;14.63;;;7.83;;
18793;SDS011;29610;49.022;12.114;2022-12-07T01:52:09;13.87;;;7.93;;
18793;SDS011;29610;49.022;12.114;2022-12-07T01:54:43;13.50;;;6.50;;
18793;SDS011;29610;49.022;12.114;2022-12-07T01:57:15;15.87;;;7.67;;
18793;SDS011;29610;49.022;12.114;2022-12-07T01:59:46;16.27;;;7.57;;
18793;SDS011;29610;49.022;12.114;2022-12-07T02:02:20;16.17;;;8.60;;
18793;SDS011;29610;49.022;12.114;2022-12-07T02:04:56;14.43;;;8.20;;
18793;SDS011;29610;49.022;12.114;2022-12-07T02:07:27;15.20;;;7.73;;
18793;SDS011;29610;49.022;12.114;2022-12-07T02:10:11;13.40;;;6.87;;
18793;SDS011;29610;49.022;12.114;2022-12-07T02:12:41;19.93;;;7.63;;
18793;SDS011;29610;49.022;12.114;2022-12-07T02:15:12;15.80;;;7.90;;
18793;SDS011;29610;49.022;12.114;2022-12-07T02:17:44;12.87;;;6.53;;
18793;SDS011;29610;49.022;12.114;2022-12-07T02:20:25;13.63;;;7.77;;
18793;SDS011;29610;49.022;12.114;2022-12-07T02:26:44;14.43;;;8.47;;
18793;SDS011;29610;49.022;12.114;2022-12-07T02:29:52;15.23;;;8.90;;
18793;SDS011;29610;49.022;12.114;2022-12-07T02:32:31;14.60;;;8.30;;
18793;SDS011;29610;49.022;12.114;2022-12-07T02:35:13;14.13;;;7.50;;
18793;SDS011;29610;49.022;12.114;2022-12-07T02:37:49;14.93;;;7.67;;
18793;SDS011;29610;49.022;12.114;2022-12-07T02:40:29;14.13;;;7.70;;
18793;SDS011;29610;49.022;12.114;2022-12-07T02:43:06;16.00;;;8.47;;
18793;SDS011;29610;49.022;12.114;2022-12-07T02:45:41;14.30;;;7.53;;
18793;SDS011;29610;49.022;12.114;2022-12-07T02:48:13;13.60;;;7.23;;
18793;SDS011;29610;49.022;12.114;2022-12-07T02:50:48;15.70;;;7.60;;
18793;SDS011;29610;49.022;12.114;2022-12-07T02:53:31;16.70;;;8.03;;
18793;SDS011;29610;49.022;12.114;2022-12-07T02:56:01;14.60;;;7.53;;
18793;SDS011;29610;49.022;12.114;2022-12-07T02:58:43;16.33;;;8.40;;
18793;SDS011;29610;49.022;12.114;2022-12-07T03:01:28;15.17;;;7.47;;
18793;SDS011;29610;49.022;12.114;2022-12-07T03:04:13;16.00;;;7.97;;
18793;SDS011;29610;49.022;12.114;2022-12-07T03:07:00;16.63;;;9.03;;
18793;SDS011;29610;49.022;12.114;2022-12-07T03:09:42;15.50;;;8.10;;
18793;SDS011;29610;49.022;12.114;2022-12-07T03:12:18;16.37;;;8.40;;
18793;SDS011;29610;49.022;12.114;2022-12-07T03:15:00;13.93;;;7.10;;
18793;SDS011;29610;49.022;12.114;2022-12-07T03:17:38;15.67;;;8.17;;
18793;SDS011;29610;49.022;12.114;2022-12-07T03:20:12;14.50;;;8.17;;
18793;SDS011;29610;49.022;12.114;2022-12-07T03:22:46;14.40;;;7.00;;
18793;SDS011;29610;49.022;12.114;2022-12-07T03:25:16;14.87;;;8.50;;
18793;SDS011;29610;49.022;12.114;2022-12-07T03:27:46;16.40;;;8.40;;
18793;SDS011;29610;49.022;12.114;2022-12-07T03:30:22;17.33;;;8.50;;
18793;SDS011;29610;49.022;12.114;2022-12-07T03:33:00;16.70;;;8.77;;
18793;SDS011;29610;49.022;12.114;2022-12-07T03:35:37;17.50;;;8.03;;
18793;SDS011;29610;49.022;12.114;2022-12-07T03:38:13;14.00;;;7.43;;
18793;SDS011;29610;49.022;12.114;2022-12-07T03:40:50;14.07;;;7.43;;
18793;SDS011;29610;49.022;12.114;2022-12-07T03:43:28;15.00;;;7.77;;
18793;SDS011;29610;49.022;12.114;2022-12-07T03:46:00;15.17;;;7.80;;
18793;SDS011;29610;49.022;12.114;2022-12-07T03:48:49;14.90;;;7.73;;
18793;SDS011;29610;49.022;12.114;2022-12-07T03:51:28;15.63;;;7.97;;
18793;SDS011;29610;49.022;12.114;2022-12-07T03:54:09;14.70;;;7.67;;
18793;SDS011;29610;49.022;12.114;2022-12-07T03:56:44;17.03;;;7.67;;
18793;SDS011;29610;49.022;12.114;2022-12-07T03:59:15;15.67;;;7.47;;
18793;SDS011;29610;49.022;12.114;2022-12-07T04:01:44;14.23;;;8.00;;
18793;SDS011;29610;49.022;12.114;2022-12-07T04:04:22;17.17;;;8.77;;
18793;SDS011;29610;49.022;12.114;2022-12-07T04:06:52;15.37;;;8.33;;
18793;SDS011;29610;49.022;12.114;2022-12-07T04:09:22;14.33;;;7.57;;
18793;SDS011;29610;49.022;12.114;2022-12-07T04:11:51;17.87;;;9.03;;
18793;SDS011;29610;49.022;12.114;2022-12-07T04:14:20;14.10;;;7.63;;
18793;SDS011;29610;49.022;12.114;2022-12-07T04:16:49;12.80;;;6.87;;
18793;SDS011;29610;49.022;12.114;2022-12-07T04:19:21;13.57;;;7.53;;
18793;SDS011;29610;49.022;12.114;2022-12-07T04:21:54;13.40;;;7.30;;
18793;SDS011;29610;49.022;12.114;2022-12-07T04:24:23;15.53;;;8.60;;
18793;SDS011;29610;49.022;12.114;2022-12-07T04:26:52;15.07;;;7.87;;
18793;SDS011;29610;49.022;12.114;2022-12-07T04:29:22;16.07;;;7.80;;
18793;SDS011;29610;49.022;12.114;2022-12-07T04:31:51;18.03;;;10.07;;
18793;SDS011;29610;49.022;12.114;2022-12-07T04:34:20;17.00;;;10.23;;
18793;SDS011;29610;49.022;12.114;2022-12-07T04:36:50;17.00;;;8.60;;
18793;SDS011;29610;49.022;12.114;2022-12-07T04:39:20;17.17;;;9.47;;
18793;SDS011;29610;49.022;12.114;2022-12-07T04:41:51;14.60;;;8.73;;
18793;SDS011;29610;49.022;12.114;2022-12-07T04:44:20;17.87;;;8.20;;
18793;SDS011;29610;49.022;12.114;2022-12-07T04:46:50;16.73;;;9.10;;
18793;SDS011;29610;49.022;12.114;2022-12-07T04:49:20;17.60;;;9.20;;
18793;SDS011;29610;49.022;12.114;2022-12-07T04:51:50;17.03;;;9.53;;
18793;SDS011;29610;49.022;12.114;2022-12-07T04:54:20;17.80;;;10.13;;
18793;SDS011;29610;49.022;12.114;2022-12-07T04:56:48;17.37;;;9.80;;
18793;SDS011;29610;49.022;12.114;2022-12-07T04:59:17;19.37;;;10.07;;
18793;SDS011;29610;49.022;12.114;2022-12-07T05:01:46;16.90;;;9.20;;
18793;SDS011;29610;49.022;12.114;2022-12-07T05:04:15;22.70;;;9.47;;
18793;SDS011;29610;49.022;12.114;2022-12-07T05:06:44;16.27;;;8.67;;
18793;SDS011;29610;49.022;12.114;2022-12-07T05:09:14;17.30;;;9.83;;
18793;SDS011;29610;49.022;12.114;2022-12-07T05:11:42;21.43;;;11.50;;
18793;SDS011;29610;49.022;12.114;2022-12-07T05:14:12;17.57;;;9.30;;
18793;SDS011;29610;49.022;12.114;2022-12-07T05:16:45;21.53;;;10.63;;
18793;SDS011;29610;49.022;12.114;2022-12-07T05:19:16;20.23;;;11.30;;
18793;SDS011;29610;49.022;12.114;2022-12-07T05:21:45;19.23;;;10.70;;
18793;SDS011;29610;49.022;12.114;2022-12-07T05:24:16;19.93;;;10.50;;
18793;SDS011;29610;49.022;12.114;2022-12-07T05:26:45;19.63;;;10.10;;
18793;SDS011;29610;49.022;12.114;2022-12-07T05:29:14;18.67;;;9.97;;
18793;SDS011;29610;49.022;12.114;2022-12-07T05:31:44;18.13;;;9.70;;
18793;SDS011;29610;49.022;12.114;2022-12-07T05:34:13;17.73;;;8.70;;
18793;SDS011;29610;49.022;12.114;2022-12-07T05:36:42;23.53;;;11.63;;
18793;SDS011;29610;49.022;12.114;2022-12-07T05:39:11;20.10;;;10.17;;
18793;SDS011;29610;49.022;12.114;2022-12-07T05:41:41;21.00;;;10.50;;
18793;SDS011;29610;49.022;12.114;2022-12-07T05:44:27;20.50;;;9.45;;
18793;SDS011;29610;49.022;12.114;2022-12-07T05:46:56;22.95;;;9.45;;
18793;SDS011;29610;49.022;12.114;2022-12-07T05:49:25;19.48;;;9.65;;
18793;SDS011;29610;49.022;12.114;2022-12-07T05:51:53;28.50;;;10.07;;
18793;SDS011;29610;49.022;12.114;2022-12-07T05:54:22;20.63;;;10.00;;
18793;SDS011;29610;49.022;12.114;2022-12-07T05:56:52;24.63;;;11.77;;
18793;SDS011;29610;49.022;12.114;2022-12-07T05:59:21;22.98;;;10.18;;
18793;SDS011;29610;49.022;12.114;2022-12-07T06:01:49;20.38;;;10.23;;
18793;SDS011;29610;49.022;12.114;2022-12-07T06:04:18;26.10;;;11.35;;
18793;SDS011;29610;49.022;12.114;2022-12-07T06:06:48;23.75;;;11.32;;
18793;SDS011;29610;49.022;12.114;2022-12-07T06:09:17;27.08;;;11.60;;
18793;SDS011;29610;49.022;12.114;2022-12-07T06:11:46;28.73;;;11.63;;
18793;SDS011;29610;49.022;12.114;2022-12-07T06:14:30;27.67;;;13.93;;
18793;SDS011;29610;49.022;12.114;2022-12-07T06:16:59;22.75;;;10.65;;
18793;SDS011;29610;49.022;12.114;2022-12-07T06:19:28;21.25;;;10.55;;
18793;SDS011;29610;49.022;12.114;2022-12-07T06:21:57;24.98;;;11.85;;
18793;SDS011;29610;49.022;12.114;2022-12-07T06:24:27;28.05;;;12.85;;
18793;SDS011;29610;49.022;12.114;2022-12-07T06:26:55;25.55;;;12.55;;
18793;SDS011;29610;49.022;12.114;2022-12-07T06:29:25;23.15;;;10.90;;
18793;SDS011;29610;49.022;12.114;2022-12-07T06:31:55;27.35;;;14.75;;
18793;SDS011;29610;49.022;12.114;2022-12-07T06:34:23;24.15;;;12.23;;
18793;SDS011;29610;49.022;12.114;2022-12-07T06:36:54;29.02;;;12.65;;
18793;SDS011;29610;49.022;12.114;2022-12-07T06:39:24;23.50;;;12.10;;
18793;SDS011;29610;49.022;12.114;2022-12-07T06:41:55;34.55;;;13.38;;
18793;SDS011;29610;49.022;12.114;2022-12-07T06:44:24;27.55;;;11.15;;
18793;SDS011;29610;49.022;12.114;2022-12-07T06:46:54;25.92;;;11.95;;
18793;SDS011;29610;49.022;12.114;2022-12-07T06:49:48;27.80;;;11.70;;
18793;SDS011;29610;49.022;12.114;2022-12-07T06:52:17;28.45;;;13.30;;
18793;SDS011;29610;49.022;12.114;2022-12-07T06:54:46;28.38;;;13.60;;
18793;SDS011;29610;49.022;12.114;2022-12-07T06:57:14;28.58;;;14.32;;
18793;SDS011;29610;49.022;12.114;2022-12-07T06:59:43;22.13;;;11.38;;
18793;SDS011;29610;49.022;12.114;2022-12-07T07:02:13;24.65;;;11.77;;
18793;SDS011;29610;49.022;12.114;2022-12-07T07:04:42;27.42;;;12.30;;
18793;SDS011;29610;49.022;12.114;2022-12-07T07:07:11;31.40;;;13.30;;
18793;SDS011;29610;49.022;12.114;2022-12-07T07:09:39;35.22;;;16.23;;
18793;SDS011;29610;49.022;12.114;2022-12-07T07:12:08;32.55;;;13.32;;
18793;SDS011;29610;49.022;12.114;2022-12-07T07:14:37;28.75;;;13.85;;
18793;SDS011;29610;49.022;12.114;2022-12-07T07:17:06;30.60;;;13.77;;
18793;SDS011;29610;49.022;12.114;2022-12-07T07:19:36;30.13;;;13.83;;
18793;SDS011;29610;49.022;12.114;2022-12-07T07:22:04;31.70;;;15.40;;
18793;SDS011;29610;49.022;12.114;2022-12-07T07:24:33;36.35;;;17.95;;
18793;SDS011;29610;49.022;12.114;2022-12-07T07:27:02;40.45;;;18.58;;
18793;SDS011;29610;49.022;12.114;2022-12-07T07:29:31;35.88;;;15.93;;
18793;SDS011;29610;49.022;12.114;2022-12-07T07:32:00;36.13;;;16.97;;
18793;SDS011;29610;49.022;12.114;2022-12-07T07:34:32;29.83;;;15.50;;
18793;SDS011;29610;49.022;12.114;2022-12-07T07:37:04;32.73;;;16.07;;
18793;SDS011;29610;49.022;12.114;2022-12-07T07:39:33;34.47;;;15.37;;
18793;SDS011;29610;49.022;12.114;2022-12-07T07:42:01;31.38;;;17.10;;
18793;SDS011;29610;49.022;12.114;2022-12-07T07:44:32;35.20;;;16.17;;
18793;SDS011;29610;49.022;12.114;2022-12-07T07:47:02;29.60;;;14.13;;
18793;SDS011;29610;49.022;12.114;2022-12-07T07:49:31;33.37;;;15.63;;
18793;SDS011;29610;49.022;12.114;2022-12-07T07:52:00;38.87;;;16.20;;
18793;SDS011;29610;49.022;12.114;2022-12-07T07:54:30;31.67;;;15.43;;
18793;SDS011;29610;49.022;12.114;2022-12-07T07:56:59;32.10;;;15.20;;
18793;SDS011;29610;49.022;12.114;2022-12-07T07:59:31;37.00;;;18.37;;
18793;SDS011;29610;49.022;12.114;2022-12-07T08:01:59;40.87;;;19.00;;
18793;SDS011;29610;49.022;12.114;2022-12-07T08:04:28;34.73;;;16.00;;
18793;SDS011;29610;49.022;12.114;2022-12-07T08:06:57;46.07;;;18.23;;
18793;SDS011;29610;49.022;12.114;2022-12-07T08:09:26;36.27;;;15.47;;
18793;SDS011;29610;49.022;12.114;2022-12-07T08:11:56;30.97;;;15.13;;
18793;SDS011;29610;49.022;12.114;2022-12-07T08:14:27;36.13;;;15.63;;
18793;SDS011;29610;49.022;12.114;2022-12-07T08:16:57;31.73;;;15.20;;
18793;SDS011;29610;49.022;12.114;2022-12-07T08:19:26;32.73;;;16.43;;
18793;SDS011;29610;49.022;12.114;2022-12-07T08:21:55;31.63;;;16.37;;
18793;SDS011;29610;49.022;12.114;2022-12-07T08:24:24;32.17;;;16.47;;
18793;SDS011;29610;49.022;12.114;2022-12-07T08:26:52;33.30;;;17.03;;
18793;SDS011;29610;49.022;12.114;2022-12-07T08:29:23;30.37;;;15.10;;
18793;SDS011;29610;49.022;12.114;2022-12-07T08:31:51;30.37;;;16.53;;
18793;SDS011;29610;49.022;12.114;2022-12-07T08:34:20;31.73;;;15.10;;
18793;SDS011;29610;49.022;12.114;2022-12-07T08:36:49;31.10;;;14.10;;
18793;SDS011;29610;49.022;12.114;2022-12-07T08:39:17;29.10;;;13.80;;
18793;SDS011;29610;49.022;12.114;2022-12-07T08:41:57;30.20;;;15.13;;
18793;SDS011;29610;49.022;12.114;2022-12-07T08:44:28;30.07;;;14.90;;
18793;SDS011;29610;49.022;12.114;2022-12-07T08:46:57;32.40;;;17.03;;
18793;SDS011;29610;49.022;12.114;2022-12-07T08:49:30;33.60;;;13.87;;
18793;SDS011;29610;49.022;12.114;2022-12-07T08:52:04;25.93;;;14.23;;
18793;SDS011;29610;49.022;12.114;2022-12-07T08:54:33;26.87;;;12.73;;
18793;SDS011;29610;49.022;12.114;2022-12-07T08:57:05;26.57;;;12.93;;
18793;SDS011;29610;49.022;12.114;2022-12-07T08:59:36;23.67;;;13.30;;
18793;SDS011;29610;49.022;12.114;2022-12-07T09:02:06;28.20;;;14.23;;
18793;SDS011;29610;49.022;12.114;2022-12-07T09:04:36;26.57;;;13.23;;
18793;SDS011;29610;49.022;12.114;2022-12-07T09:07:05;26.20;;;12.93;;
18793;SDS011;29610;49.022;12.114;2022-12-07T09:09:35;24.70;;;13.10;;
18793;SDS011;29610;49.022;12.114;2022-12-07T09:12:05;24.53;;;12.10;;
18793;SDS011;29610;49.022;12.114;2022-12-07T09:14:34;21.57;;;11.77;;
18793;SDS011;29610;49.022;12.114;2022-12-07T09:17:05;26.23;;;12.50;;
18793;SDS011;29610;49.022;12.114;2022-12-07T09:19:36;24.07;;;11.13;;
18793;SDS011;29610;49.022;12.114;2022-12-07T09:22:05;23.10;;;11.97;;
18793;SDS011;29610;49.022;12.114;2022-12-07T09:24:36;23.47;;;11.23;;
18793;SDS011;29610;49.022;12.114;2022-12-07T09:27:05;19.73;;;10.47;;
18793;SDS011;29610;49.022;12.114;2022-12-07T09:29:34;20.40;;;10.50;;
18793;SDS011;29610;49.022;12.114;2022-12-07T09:32:05;23.00;;;10.63;;
18793;SDS011;29610;49.022;12.114;2022-12-07T09:34:37;18.73;;;10.57;;
18793;SDS011;29610;49.022;12.114;2022-12-07T09:37:06;19.50;;;8.93;;
18793;SDS011;29610;49.022;12.114;2022-12-07T09:39:37;21.00;;;10.00;;
18793;SDS011;29610;49.022;12.114;2022-12-07T09:42:19;18.30;;;8.77;;
18793;SDS011;29610;49.022;12.114;2022-12-07T09:44:59;19.10;;;9.70;;
18793;SDS011;29610;49.022;12.114;2022-12-07T09:47:30;17.93;;;10.07;;
18793;SDS011;29610;49.022;12.114;2022-12-07T09:50:03;19.50;;;8.83;;
18793;SDS011;29610;49.022;12.114;2022-12-07T09:52:35;16.07;;;8.20;;
18793;SDS011;29610;49.022;12.114;2022-12-07T09:55:09;16.23;;;8.60;;
18793;SDS011;29610;49.022;12.114;2022-12-07T09:57:42;18.80;;;9.20;;
18793;SDS011;29610;49.022;12.114;2022-12-07T10:00:14;16.07;;;8.70;;
18793;SDS011;29610;49.022;12.114;2022-12-07T10:02:46;18.67;;;9.37;;
18793;SDS011;29610;49.022;12.114;2022-12-07T10:05:22;18.50;;;8.37;;
18793;SDS011;29610;49.022;12.114;2022-12-07T10:07:55;15.93;;;7.87;;
18793;SDS011;29610;49.022;12.114;2022-12-07T10:10:25;18.57;;;9.30;;
18793;SDS011;29610;49.022;12.114;2022-12-07T10:13:05;19.77;;;10.13;;
18793;SDS011;29610;49.022;12.114;2022-12-07T10:15:51;19.17;;;9.13;;
18793;SDS011;29610;49.022;12.114;2022-12-07T10:18:33;18.43;;;9.10;;
18793;SDS011;29610;49.022;12.114;2022-12-07T10:21:14;16.70;;;7.60;;
18793;SDS011;29610;49.022;12.114;2022-12-07T10:23:58;13.73;;;7.10;;
18793;SDS011;29610;49.022;12.114;2022-12-07T10:26:31;14.53;;;7.20;;
18793;SDS011;29610;49.022;12.114;2022-12-07T10:29:04;18.27;;;8.50;;
18793;SDS011;29610;49.022;12.114;2022-12-07T10:31:50;16.30;;;9.07;;
18793;SDS011;29610;49.022;12.114;2022-12-07T10:34:26;15.40;;;7.50;;
18793;SDS011;29610;49.022;12.114;2022-12-07T10:37:11;18.00;;;8.70;;
18793;SDS011;29610;49.022;12.114;2022-12-07T10:39:48;16.47;;;8.20;;
18793;SDS011;29610;49.022;12.114;2022-12-07T10:42:20;17.40;;;8.33;;
18793;SDS011;29610;49.022;12.114;2022-12-07T10:45:06;16.03;;;8.03;;
18793;SDS011;29610;49.022;12.114;2022-12-07T10:47:44;14.97;;;6.93;;
18793;SDS011;29610;49.022;12.114;2022-12-07T10:50:29;14.80;;;7.33;;
18793;SDS011;29610;49.022;12.114;2022-12-07T10:53:44;16.30;;;7.70;;
18793;SDS011;29610;49.022;12.114;2022-12-07T10:56:34;15.77;;;7.70;;
18793;SDS011;29610;49.022;12.114;2022-12-07T10:59:41;14.77;;;8.00;;
18793;SDS011;29610;49.022;12.114;2022-12-07T11:02:41;14.00;;;6.87;;
18793;SDS011;29610;49.022;12.114;2022-12-07T11:05:52;12.47;;;5.97;;
18793;SDS011;29610;49.022;12.114;2022-12-07T11:08:39;16.90;;;7.37;;
18793;SDS011;29610;49.022;12.114;2022-12-07T11:11:32;16.60;;;7.03;;
18793;SDS011;29610;49.022;12.114;2022-12-07T11:14:11;16.90;;;6.40;;
18793;SDS011;29610;49.022;12.114;2022-12-07T11:16:55;12.97;;;6.20;;
18793;SDS011;29610;49.022;12.114;2022-12-07T11:19:39;12.63;;;5.80;;
18793;SDS011;29610;49.022;12.114;2022-12-07T11:22:33;13.00;;;6.50;;
18793;SDS011;29610;49.022;12.114;2022-12-07T11:25:18;13.10;;;5.13;;
18793;SDS011;29610;49.022;12.114;2022-12-07T11:28:02;13.47;;;6.13;;
18793;SDS011;29610;49.022;12.114;2022-12-07T11:30:54;12.50;;;5.77;;
18793;SDS011;29610;49.022;12.114;2022-12-07T11:33:38;13.40;;;6.57;;
18793;SDS011;29610;49.022;12.114;2022-12-07T11:36:29;12.33;;;5.70;;
18793;SDS011;29610;49.022;12.114;2022-12-07T11:39:09;11.50;;;5.70;;
18793;SDS011;29610;49.022;12.114;2022-12-07T11:41:56;16.77;;;6.00;;
18793;SDS011;29610;49.022;12.114;2022-12-07T11:44:37;14.10;;;5.77;;
18793;SDS011;29610;49.022;12.114;2022-12-07T11:47:20;11.80;;;5.20;;
18793;SDS011;29610;49.022;12.114;2022-12-07T11:50:05;13.30;;;6.20;;
18793;SDS011;29610;49.022;12.114;2022-12-07T11:52:54;12.40;;;5.83;;
18793;SDS011;29610;49.022;12.114;2022-12-07T11:55:30;11.47;;;5.67;;
18793;SDS011;29610;49.022;12.114;2022-12-07T12:01:24;14.00;;;5.90;;
18793;SDS011;29610;49.022;12.114;2022-12-07T12:04:16;11.90;;;5.27;;
18793;SDS011;29610;49.022;12.114;2022-12-07T12:06:58;12.97;;;5.73;;
18793;SDS011;29610;49.022;12.114;2022-12-07T12:09:51;11.17;;;5.50;;
18793;SDS011;29610;49.022;12.114;2022-12-07T12:16:12;12.40;;;5.80;;
18793;SDS011;29610;49.022;12.114;2022-12-07T12:19:18;15.30;;;6.13;;
18793;SDS011;29610;49.022;12.114;2022-12-07T12:22:02;13.70;;;6.33;;
18793;SDS011;29610;49.022;12.114;2022-12-07T12:24:41;12.73;;;5.00;;
18793;SDS011;29610;49.022;12.114;2022-12-07T12:27:19;14.60;;;5.87;;
18793;SDS011;29610;49.022;12.114;2022-12-07T12:29:55;13.83;;;6.27;;
18793;SDS011;29610;49.022;12.114;2022-12-07T12:32:30;13.17;;;6.23;;
18793;SDS011;29610;49.022;12.114;2022-12-07T12:35:22;12.80;;;5.60;;
18793;SDS011;29610;49.022;12.114;2022-12-07T12:41:04;12.13;;;5.00;;
18793;SDS011;29610;49.022;12.114;2022-12-07T12:43:44;17.53;;;5.80;;
18793;SDS011;29610;49.022;12.114;2022-12-07T12:58:50;12.80;;;5.73;;
18793;SDS011;29610;49.022;12.114;2022-12-07T13:01:55;15.40;;;6.40;;
18793;SDS011;29610;49.022;12.114;2022-12-07T13:10:37;15.63;;;6.70;;
18793;SDS011;29610;49.022;12.114;2022-12-07T13:13:28;14.63;;;6.80;;
18793;SDS011;29610;49.022;12.114;2022-12-07T13:22:51;12.00;;;5.43;;
18793;SDS011;29610;49.022;12.114;2022-12-07T13:25:45;16.27;;;6.13;;
18793;SDS011;29610;49.022;12.114;2022-12-07T13:28:26;14.63;;;6.93;;
18793;SDS011;29610;49.022;12.114;2022-12-07T13:31:18;12.57;;;6.07;;
18793;SDS011;29610;49.022;12.114;2022-12-07T13:34:28;13.67;;;6.50;;
18793;SDS011;29610;49.022;12.114;2022-12-07T13:37:00;15.67;;;6.73;;
18793;SDS011;29610;49.022;12.114;2022-12-07T13:39:44;15.43;;;6.47;;
18793;SDS011;29610;49.022;12.114;2022-12-07T13:42:19;14.40;;;6.30;;
18793;SDS011;29610;49.022;12.114;2022-12-07T13:44:53;14.97;;;6.00;;
18793;SDS011;29610;49.022;12.114;2022-12-07T13:47:26;16.90;;;6.93;;
18793;SDS011;29610;49.022;12.114;2022-12-07T13:50:20;15.83;;;7.80;;
18793;SDS011;29610;49.022;12.114;2022-12-07T13:52:54;13.70;;;6.10;;
18793;SDS011;29610;49.022;12.114;2022-12-07T13:55:24;14.00;;;5.80;;
18793;SDS011;29610;49.022;12.114;2022-12-07T13:57:55;13.60;;;6.30;;
18793;SDS011;29610;49.022;12.114;2022-12-07T14:00:25;13.70;;;7.10;;
18793;SDS011;29610;49.022;12.114;2022-12-07T14:02:58;17.70;;;8.00;;
18793;SDS011;29610;49.022;12.114;2022-12-07T14:05:31;13.90;;;6.03;;
18793;SDS011;29610;49.022;12.114;2022-12-07T14:08:04;16.53;;;6.13;;
18793;SDS011;29610;49.022;12.114;2022-12-07T14:10:53;15.70;;;5.80;;
18793;SDS011;29610;49.022;12.114;2022-12-07T14:13:27;14.30;;;5.60;;
18793;SDS011;29610;49.022;12.114;2022-12-07T14:16:00;10.37;;;4.83;;
18793;SDS011;29610;49.022;12.114;2022-12-07T14:18:36;11.83;;;5.67;;
18793;SDS011;29610;49.022;12.114;2022-12-07T14:21:16;15.13;;;6.20;;
18793;SDS011;29610;49.022;12.114;2022-12-07T14:23:47;15.07;;;7.13;;
18793;SDS011;29610;49.022;12.114;2022-12-07T14:26:37;12.23;;;5.23;;
18793;SDS011;29610;49.022;12.114;2022-12-07T14:29:29;14.63;;;6.13;;
18793;SDS011;29610;49.022;12.114;2022-12-07T14:32:12;12.87;;;6.00;;
18793;SDS011;29610;49.022;12.114;2022-12-07T14:34:53;14.33;;;6.33;;
18793;SDS011;29610;49.022;12.114;2022-12-07T14:37:30;16.40;;;6.60;;
18793;SDS011;29610;49.022;12.114;2022-12-07T14:40:00;15.23;;;7.30;;
18793;SDS011;29610;49.022;12.114;2022-12-07T14:42:29;14.20;;;5.90;;
18793;SDS011;29610;49.022;12.114;2022-12-07T14:44:59;14.93;;;7.10;;
18793;SDS011;29610;49.022;12.114;2022-12-07T14:47:28;14.13;;;6.17;;
18793;SDS011;29610;49.022;12.114;2022-12-07T14:50:17;14.03;;;5.80;;
18793;SDS011;29610;49.022;12.114;2022-12-07T14:52:50;11.50;;;5.50;;
18793;SDS011;29610;49.022;12.114;2022-12-07T14:55:46;11.70;;;6.63;;
18793;SDS011;29610;49.022;12.114;2022-12-07T14:58:19;11.73;;;5.80;;
18793;SDS011;29610;49.022;12.114;2022-12-07T15:00:48;13.33;;;6.00;;
18793;SDS011;29610;49.022;12.114;2022-12-07T15:03:17;11.80;;;5.57;;
18793;SDS011;29610;49.022;12.114;2022-12-07T15:05:45;15.30;;;6.40;;
18793;SDS011;29610;49.022;12.114;2022-12-07T15:08:16;13.50;;;5.80;;
18793;SDS011;29610;49.022;12.114;2022-12-07T15:10:46;13.90;;;6.10;;
18793;SDS011;29610;49.022;12.114;2022-12-07T15:13:14;11.87;;;5.20;;
18793;SDS011;29610;49.022;12.114;2022-12-07T15:16:01;11.40;;;5.30;;
18793;SDS011;29610;49.022;12.114;2022-12-07T15:18:33;11.47;;;5.63;;
18793;SDS011;29610;49.022;12.114;2022-12-07T15:21:01;15.23;;;6.53;;
18793;SDS011;29610;49.022;12.114;2022-12-07T15:23:33;12.53;;;6.27;;
18793;SDS011;29610;49.022;12.114;2022-12-07T15:26:02;14.07;;;6.03;;
18793;SDS011;29610;49.022;12.114;2022-12-07T15:28:33;12.53;;;5.87;;
18793;SDS011;29610;49.022;12.114;2022-12-07T15:31:01;13.37;;;5.97;;
18793;SDS011;29610;49.022;12.114;2022-12-07T15:33:50;10.80;;;4.90;;
18793;SDS011;29610;49.022;12.114;2022-12-07T15:36:20;12.67;;;6.13;;
18793;SDS011;29610;49.022;12.114;2022-12-07T15:38:54;13.40;;;5.53;;